Airfield :
LOGIN :

Register | Disclaimer

   EN    FR    IT 

 










Legend :    VFR   Marginal VFR   IFR   Intensive IFR   Very Intensive IFR
Visi :
Ceiling :
>= 8 km
>= 3000ft
5 to 8 km
1000 to 3000 ft
1500m to 5 km
500 to 1000 ft
800 to 1500m
200 to 500 ft
< 800m
< 200 ft
Symbols :   Thunderstorms  Fog  Heavy snow  Heavy precipitations  Wind > 20 kt
SIGMETs :     Misc.  Thunderstorms  Icing  Turbulence  Mountain Waves  Volcanic Ashes






- Airport Elevation : 266 ft
- IATA code : NCL


EGNT - Newcastle

CURRENT METAR :
  • 192120Z AUTO 00000KT 9999 NCD 04/03 Q1019

EXPIRED METARs :
  • 192050Z 00000KT CAVOK 05/03 Q1019
  • 192020Z 10003KT 9000 NSC 05/04 Q1019
  • 191950Z 09004KT 9000 NSC 05/03 Q1019
  • 191920Z 08001KT CAVOK 08/03 Q1019
  • 191850Z 13004KT 090V160 CAVOK 09/04 Q1019

TAF AMD TAF EGNT
Valid from the 19 at 20:00 until the 20 at 18:00 UTC


192005Z 1920/2018 13010KT 9999 FEW045
BECMG 1920/1922 20005KT
TEMPO 1920/2002 8000
PROB30
TEMPO 2002/2008 4000 BR
BECMG 2010/2013 36010KT
TEMPO 2014/2018 8000 -RA
ATIS : +44 191 214 3400



MET'MAP, your aeronautical weather chart ! - Copyright ORBIFLY December 2007 - Disclaimer

ORBIFLY MET'MAP TEAM :

Programming & Development : Alexandra Zaïnal
Concept & original design : Baudouin d'Aumeries
Assistance for programming : Marc-Olivier Méhu
Technical & hardware support : Manuel Goepfert

Contact : metmap@orbifly.com




SOURCES & CREDITS :

   NOAA